sensor_id;sensor_type;location;lat;lon;timestamp;pressure;altitude;pressure_sealevel;temperature
70050;BMP180;57391;51.306;22.680;2023-06-22T00:01:20;99837.00;;;22.50
70050;BMP180;57391;51.306;22.680;2023-06-22T00:03:49;99845.60;;;22.40
70050;BMP180;57391;51.306;22.680;2023-06-22T00:06:16;99846.80;;;22.40
70050;BMP180;57391;51.306;22.680;2023-06-22T00:08:43;99847.20;;;22.30
70050;BMP180;57391;51.306;22.680;2023-06-22T00:11:11;99853.00;;;22.30
70050;BMP180;57391;51.306;22.680;2023-06-22T00:13:39;99850.80;;;22.28
70050;BMP180;57391;51.306;22.680;2023-06-22T00:16:06;99850.20;;;22.20
70050;BMP180;57391;51.306;22.680;2023-06-22T00:18:33;99850.00;;;22.20
70050;BMP180;57391;51.306;22.680;2023-06-22T00:21:00;99842.60;;;22.20
70050;BMP180;57391;51.306;22.680;2023-06-22T00:23:32;99839.40;;;22.20
70050;BMP180;57391;51.306;22.680;2023-06-22T00:26:03;99844.00;;;22.20
70050;BMP180;57391;51.306;22.680;2023-06-22T00:28:34;99847.60;;;22.20
70050;BMP180;57391;51.306;22.680;2023-06-22T00:31:06;99846.60;;;22.20
70050;BMP180;57391;51.306;22.680;2023-06-22T00:33:44;99848.20;;;22.20
70050;BMP180;57391;51.306;22.680;2023-06-22T00:36:20;99848.40;;;22.20
70050;BMP180;57391;51.306;22.680;2023-06-22T00:38:47;99853.00;;;22.20
70050;BMP180;57391;51.306;22.680;2023-06-22T00:41:29;99847.20;;;22.20
70050;BMP180;57391;51.306;22.680;2023-06-22T00:43:59;99844.60;;;22.10
70050;BMP180;57391;51.306;22.680;2023-06-22T00:46:34;99845.60;;;22.10
70050;BMP180;57391;51.306;22.680;2023-06-22T00:49:01;99843.80;;;22.10
70050;BMP180;57391;51.306;22.680;2023-06-22T00:51:30;99839.40;;;22.10
70050;BMP180;57391;51.306;22.680;2023-06-22T00:53:58;99832.40;;;22.10
70050;BMP180;57391;51.306;22.680;2023-06-22T00:56:25;99830.60;;;22.02
70050;BMP180;57391;51.306;22.680;2023-06-22T00:58:53;99824.20;;;22.00
70050;BMP180;57391;51.306;22.680;2023-06-22T01:01:20;99820.40;;;22.00
70050;BMP180;57391;51.306;22.680;2023-06-22T01:03:50;99823.20;;;22.00
70050;BMP180;57391;51.306;22.680;2023-06-22T01:06:26;99824.80;;;22.00
70050;BMP180;57391;51.306;22.680;2023-06-22T01:09:40;99819.60;;;22.00
70050;BMP180;57391;51.306;22.680;2023-06-22T01:12:11;99815.80;;;22.00
70050;BMP180;57391;51.306;22.680;2023-06-22T01:14:45;99810.80;;;22.00
70050;BMP180;57391;51.306;22.680;2023-06-22T01:17:15;99810.00;;;22.00
70050;BMP180;57391;51.306;22.680;2023-06-22T01:19:50;99818.60;;;22.00
70050;BMP180;57391;51.306;22.680;2023-06-22T01:22:22;99836.00;;;22.00
70050;BMP180;57391;51.306;22.680;2023-06-22T01:25:16;99825.60;;;22.00
70050;BMP180;57391;51.306;22.680;2023-06-22T01:28:19;99810.20;;;21.90
70050;BMP180;57391;51.306;22.680;2023-06-22T01:30:52;99814.00;;;21.90
70050;BMP180;57391;51.306;22.680;2023-06-22T01:33:35;99802.40;;;21.82
70050;BMP180;57391;51.306;22.680;2023-06-22T01:36:04;99801.60;;;21.80
70050;BMP180;57391;51.306;22.680;2023-06-22T01:38:33;99797.20;;;21.80
70050;BMP180;57391;51.306;22.680;2023-06-22T01:41:01;99802.00;;;21.70
70050;BMP180;57391;51.306;22.680;2023-06-22T01:43:30;99805.60;;;21.70
70050;BMP180;57391;51.306;22.680;2023-06-22T01:45:59;99808.00;;;21.70
70050;BMP180;57391;51.306;22.680;2023-06-22T01:48:26;99805.20;;;21.66
70050;BMP180;57391;51.306;22.680;2023-06-22T01:50:55;99809.40;;;21.60
70050;BMP180;57391;51.306;22.680;2023-06-22T01:53:23;99806.60;;;21.60
70050;BMP180;57391;51.306;22.680;2023-06-22T01:55:52;99814.00;;;21.60
70050;BMP180;57391;51.306;22.680;2023-06-22T01:58:23;99814.80;;;21.60
70050;BMP180;57391;51.306;22.680;2023-06-22T02:01:09;99819.20;;;21.60
70050;BMP180;57391;51.306;22.680;2023-06-22T02:03:46;99813.80;;;21.50
70050;BMP180;57391;51.306;22.680;2023-06-22T02:06:23;99812.60;;;21.50
70050;BMP180;57391;51.306;22.680;2023-06-22T02:09:00;99817.40;;;21.40
70050;BMP180;57391;51.306;22.680;2023-06-22T02:11:29;99809.60;;;21.40
70050;BMP180;57391;51.306;22.680;2023-06-22T02:13:58;99804.00;;;21.30
70050;BMP180;57391;51.306;22.680;2023-06-22T02:16:26;99816.20;;;21.26
70050;BMP180;57391;51.306;22.680;2023-06-22T02:18:56;99821.60;;;21.20
70050;BMP180;57391;51.306;22.680;2023-06-22T02:21:24;99819.80;;;21.20
70050;BMP180;57391;51.306;22.680;2023-06-22T02:23:51;99822.00;;;21.20
70050;BMP180;57391;51.306;22.680;2023-06-22T02:26:18;99826.20;;;21.10
70050;BMP180;57391;51.306;22.680;2023-06-22T02:28:45;99825.60;;;21.08
70050;BMP180;57391;51.306;22.680;2023-06-22T02:31:12;99827.40;;;21.00
70050;BMP180;57391;51.306;22.680;2023-06-22T02:33:39;99827.80;;;21.00
70050;BMP180;57391;51.306;22.680;2023-06-22T02:36:06;99835.00;;;21.00
70050;BMP180;57391;51.306;22.680;2023-06-22T02:38:35;99839.60;;;21.00
70050;BMP180;57391;51.306;22.680;2023-06-22T02:41:03;99846.40;;;20.96
70050;BMP180;57391;51.306;22.680;2023-06-22T02:43:30;99849.00;;;21.00
70050;BMP180;57391;51.306;22.680;2023-06-22T02:45:56;99852.20;;;21.00
70050;BMP180;57391;51.306;22.680;2023-06-22T02:48:24;99857.20;;;21.00
70050;BMP180;57391;51.306;22.680;2023-06-22T02:50:51;99853.60;;;21.00
70050;BMP180;57391;51.306;22.680;2023-06-22T02:53:18;99850.00;;;21.00
70050;BMP180;57391;51.306;22.680;2023-06-22T02:55:46;99851.00;;;20.94
70050;BMP180;57391;51.306;22.680;2023-06-22T02:58:13;99844.40;;;20.92
70050;BMP180;57391;51.306;22.680;2023-06-22T03:00:40;99849.00;;;20.92
70050;BMP180;57391;51.306;22.680;2023-06-22T03:03:07;99851.80;;;20.96
70050;BMP180;57391;51.306;22.680;2023-06-22T03:05:34;99848.00;;;20.96
70050;BMP180;57391;51.306;22.680;2023-06-22T03:08:02;99855.20;;;20.96
70050;BMP180;57391;51.306;22.680;2023-06-22T03:10:31;99861.60;;;20.92
70050;BMP180;57391;51.306;22.680;2023-06-22T03:12:58;99866.60;;;20.90
70050;BMP180;57391;51.306;22.680;2023-06-22T03:15:24;99864.00;;;20.90
70050;BMP180;57391;51.306;22.680;2023-06-22T03:17:52;99863.20;;;20.90
70050;BMP180;57391;51.306;22.680;2023-06-22T03:20:19;99867.20;;;20.90
70050;BMP180;57391;51.306;22.680;2023-06-22T03:22:47;99862.00;;;20.98
70050;BMP180;57391;51.306;22.680;2023-06-22T03:25:15;99865.80;;;21.00
70050;BMP180;57391;51.306;22.680;2023-06-22T03:27:44;99865.00;;;21.00
70050;BMP180;57391;51.306;22.680;2023-06-22T03:30:11;99868.20;;;21.10
70050;BMP180;57391;51.306;22.680;2023-06-22T03:32:39;99865.80;;;21.18
70050;BMP180;57391;51.306;22.680;2023-06-22T03:35:07;99864.20;;;21.24
70050;BMP180;57391;51.306;22.680;2023-06-22T03:37:36;99865.20;;;21.30
70050;BMP180;57391;51.306;22.680;2023-06-22T03:40:03;99861.80;;;21.40
70050;BMP180;57391;51.306;22.680;2023-06-22T03:42:34;99859.40;;;21.50
70050;BMP180;57391;51.306;22.680;2023-06-22T03:45:04;99861.00;;;21.70
70050;BMP180;57391;51.306;22.680;2023-06-22T03:47:32;99862.80;;;22.00
70050;BMP180;57391;51.306;22.680;2023-06-22T03:50:00;99863.80;;;22.26
70050;BMP180;57391;51.306;22.680;2023-06-22T03:52:27;99863.40;;;22.50
70050;BMP180;57391;51.306;22.680;2023-06-22T03:54:54;99864.40;;;22.78
70050;BMP180;57391;51.306;22.680;2023-06-22T03:57:21;99867.40;;;23.24
70050;BMP180;57391;51.306;22.680;2023-06-22T03:59:47;99867.00;;;23.74
70050;BMP180;57391;51.306;22.680;2023-06-22T04:02:14;99865.40;;;24.08
70050;BMP180;57391;51.306;22.680;2023-06-22T04:04:41;99867.40;;;24.32
70050;BMP180;57391;51.306;22.680;2023-06-22T04:07:08;99870.80;;;24.30
70050;BMP180;57391;51.306;22.680;2023-06-22T04:09:35;99865.40;;;24.46
70050;BMP180;57391;51.306;22.680;2023-06-22T04:12:02;99866.20;;;24.86
70050;BMP180;57391;51.306;22.680;2023-06-22T04:14:29;99869.20;;;25.48
70050;BMP180;57391;51.306;22.680;2023-06-22T04:16:58;99875.00;;;25.90
70050;BMP180;57391;51.306;22.680;2023-06-22T04:19:25;99875.80;;;26.20
70050;BMP180;57391;51.306;22.680;2023-06-22T04:21:52;99880.60;;;26.56
70050;BMP180;57391;51.306;22.680;2023-06-22T04:24:19;99890.60;;;26.80
70050;BMP180;57391;51.306;22.680;2023-06-22T04:26:46;99889.60;;;26.80
70050;BMP180;57391;51.306;22.680;2023-06-22T04:29:14;99894.00;;;26.60
70050;BMP180;57391;51.306;22.680;2023-06-22T04:31:41;99902.00;;;26.26
70050;BMP180;57391;51.306;22.680;2023-06-22T04:34:08;99909.60;;;25.96
70050;BMP180;57391;51.306;22.680;2023-06-22T04:36:40;99915.80;;;25.70
70050;BMP180;57391;51.306;22.680;2023-06-22T04:39:11;99921.00;;;25.50
70050;BMP180;57391;51.306;22.680;2023-06-22T04:41:40;99921.60;;;25.30
70050;BMP180;57391;51.306;22.680;2023-06-22T04:44:14;99918.40;;;25.10
70050;BMP180;57391;51.306;22.680;2023-06-22T04:47:01;99919.20;;;24.98
70050;BMP180;57391;51.306;22.680;2023-06-22T04:49:31;99917.20;;;24.80
70050;BMP180;57391;51.306;22.680;2023-06-22T04:52:05;99914.20;;;24.60
70050;BMP180;57391;51.306;22.680;2023-06-22T04:54:33;99915.60;;;24.48
70050;BMP180;57391;51.306;22.680;2023-06-22T04:57:05;99914.40;;;24.30
70050;BMP180;57391;51.306;22.680;2023-06-22T04:59:38;99909.80;;;24.20
70050;BMP180;57391;51.306;22.680;2023-06-22T05:02:05;99913.80;;;24.20
70050;BMP180;57391;51.306;22.680;2023-06-22T05:04:33;99912.40;;;24.12
70050;BMP180;57391;51.306;22.680;2023-06-22T05:07:02;99907.80;;;24.10
70050;BMP180;57391;51.306;22.680;2023-06-22T05:09:29;99909.20;;;24.10
70050;BMP180;57391;51.306;22.680;2023-06-22T05:11:56;99905.80;;;24.06
70050;BMP180;57391;51.306;22.680;2023-06-22T05:14:23;99906.20;;;24.10
70050;BMP180;57391;51.306;22.680;2023-06-22T05:16:50;99901.60;;;24.10
70050;BMP180;57391;51.306;22.680;2023-06-22T05:19:18;99897.00;;;24.10
70050;BMP180;57391;51.306;22.680;2023-06-22T05:21:45;99899.40;;;24.08
70050;BMP180;57391;51.306;22.680;2023-06-22T05:24:12;99900.00;;;24.02
70050;BMP180;57391;51.306;22.680;2023-06-22T05:26:39;99902.00;;;24.00
70050;BMP180;57391;51.306;22.680;2023-06-22T05:29:06;99903.00;;;24.00
70050;BMP180;57391;51.306;22.680;2023-06-22T05:31:33;99900.40;;;24.00
70050;BMP180;57391;51.306;22.680;2023-06-22T05:34:00;99907.20;;;24.00
70050;BMP180;57391;51.306;22.680;2023-06-22T05:36:27;99906.60;;;23.94
70050;BMP180;57391;51.306;22.680;2023-06-22T05:38:57;99906.60;;;24.00
70050;BMP180;57391;51.306;22.680;2023-06-22T05:41:25;99904.20;;;24.00
70050;BMP180;57391;51.306;22.680;2023-06-22T05:43:51;99905.80;;;24.00
70050;BMP180;57391;51.306;22.680;2023-06-22T05:46:19;99906.00;;;24.10
70050;BMP180;57391;51.306;22.680;2023-06-22T05:48:46;99900.80;;;24.10
70050;BMP180;57391;51.306;22.680;2023-06-22T05:51:13;99902.60;;;24.20
70050;BMP180;57391;51.306;22.680;2023-06-22T05:53:39;99904.00;;;24.24
70050;BMP180;57391;51.306;22.680;2023-06-22T05:56:06;99902.80;;;24.30
70050;BMP180;57391;51.306;22.680;2023-06-22T05:58:33;99898.80;;;24.40
70050;BMP180;57391;51.306;22.680;2023-06-22T06:01:00;99899.20;;;24.50
70050;BMP180;57391;51.306;22.680;2023-06-22T06:03:27;99903.20;;;24.60
70050;BMP180;57391;51.306;22.680;2023-06-22T06:05:55;99903.40;;;24.70
70050;BMP180;57391;51.306;22.680;2023-06-22T06:08:22;99903.60;;;24.72
70050;BMP180;57391;51.306;22.680;2023-06-22T06:10:49;99899.60;;;24.80
70050;BMP180;57391;51.306;22.680;2023-06-22T06:13:16;99900.80;;;24.80
70050;BMP180;57391;51.306;22.680;2023-06-22T06:15:43;99901.00;;;25.00
70050;BMP180;57391;51.306;22.680;2023-06-22T06:18:10;99913.80;;;25.30
70050;BMP180;57391;51.306;22.680;2023-06-22T06:20:37;99919.40;;;25.40
70050;BMP180;57391;51.306;22.680;2023-06-22T06:23:04;99918.20;;;25.42
70050;BMP180;57391;51.306;22.680;2023-06-22T06:25:31;99921.00;;;25.40
70050;BMP180;57391;51.306;22.680;2023-06-22T06:27:57;99924.80;;;25.40
70050;BMP180;57391;51.306;22.680;2023-06-22T06:30:24;99925.20;;;25.40
70050;BMP180;57391;51.306;22.680;2023-06-22T06:32:51;99926.20;;;25.30
70050;BMP180;57391;51.306;22.680;2023-06-22T06:35:18;99927.80;;;25.30
70050;BMP180;57391;51.306;22.680;2023-06-22T06:37:48;99927.20;;;25.30
70050;BMP180;57391;51.306;22.680;2023-06-22T06:40:17;99925.40;;;25.20
70050;BMP180;57391;51.306;22.680;2023-06-22T06:42:47;99923.20;;;25.20
70050;BMP180;57391;51.306;22.680;2023-06-22T06:45:23;99923.60;;;25.28
70050;BMP180;57391;51.306;22.680;2023-06-22T06:47:53;99926.40;;;25.30
70050;BMP180;57391;51.306;22.680;2023-06-22T06:50:21;99918.40;;;25.40
70050;BMP180;57391;51.306;22.680;2023-06-22T06:52:48;99916.40;;;25.70
70050;BMP180;57391;51.306;22.680;2023-06-22T06:55:17;99912.80;;;26.24
70050;BMP180;57391;51.306;22.680;2023-06-22T06:57:46;99910.80;;;26.86
70050;BMP180;57391;51.306;22.680;2023-06-22T07:00:15;99919.80;;;27.48
70050;BMP180;57391;51.306;22.680;2023-06-22T07:02:44;99914.80;;;27.76
70050;BMP180;57391;51.306;22.680;2023-06-22T07:05:12;99915.40;;;27.82
70050;BMP180;57391;51.306;22.680;2023-06-22T07:07:39;99909.80;;;27.80
70050;BMP180;57391;51.306;22.680;2023-06-22T07:10:08;99908.00;;;28.20
70050;BMP180;57391;51.306;22.680;2023-06-22T07:12:35;99899.60;;;28.68
70050;BMP180;57391;51.306;22.680;2023-06-22T07:15:05;99903.80;;;29.20
70050;BMP180;57391;51.306;22.680;2023-06-22T07:17:35;99906.00;;;29.60
70050;BMP180;57391;51.306;22.680;2023-06-22T07:20:04;99900.80;;;29.98
70050;BMP180;57391;51.306;22.680;2023-06-22T07:22:44;99905.60;;;30.26
70050;BMP180;57391;51.306;22.680;2023-06-22T07:25:11;99911.40;;;30.56
70050;BMP180;57391;51.306;22.680;2023-06-22T07:28:00;99917.80;;;30.90
70050;BMP180;57391;51.306;22.680;2023-06-22T07:30:29;99924.60;;;31.00
70050;BMP180;57391;51.306;22.680;2023-06-22T07:32:57;99933.00;;;30.70
70050;BMP180;57391;51.306;22.680;2023-06-22T07:35:24;99928.20;;;30.30
70050;BMP180;57391;51.306;22.680;2023-06-22T07:37:51;99926.40;;;29.84
70050;BMP180;57391;51.306;22.680;2023-06-22T07:40:18;99927.80;;;29.50
70050;BMP180;57391;51.306;22.680;2023-06-22T07:42:45;99929.20;;;29.30
70050;BMP180;57391;51.306;22.680;2023-06-22T07:45:14;99927.40;;;29.30
70050;BMP180;57391;51.306;22.680;2023-06-22T07:47:41;99928.60;;;29.30
70050;BMP180;57391;51.306;22.680;2023-06-22T07:50:09;99928.00;;;29.30
70050;BMP180;57391;51.306;22.680;2023-06-22T07:52:36;99925.60;;;29.30
70050;BMP180;57391;51.306;22.680;2023-06-22T07:55:04;99925.40;;;29.48
70050;BMP180;57391;51.306;22.680;2023-06-22T07:57:31;99923.40;;;29.78
70050;BMP180;57391;51.306;22.680;2023-06-22T08:00:03;99926.60;;;30.12
70050;BMP180;57391;51.306;22.680;2023-06-22T08:02:48;99929.20;;;30.60
70050;BMP180;57391;51.306;22.680;2023-06-22T08:05:15;99922.00;;;31.00
70050;BMP180;57391;51.306;22.680;2023-06-22T08:07:44;99923.40;;;31.36
70050;BMP180;57391;51.306;22.680;2023-06-22T08:10:12;99922.00;;;31.64
70050;BMP180;57391;51.306;22.680;2023-06-22T08:12:40;99921.60;;;31.86
70050;BMP180;57391;51.306;22.680;2023-06-22T08:15:08;99926.40;;;32.00
70050;BMP180;57391;51.306;22.680;2023-06-22T08:17:39;99924.80;;;32.20
70050;BMP180;57391;51.306;22.680;2023-06-22T08:20:08;99920.20;;;32.40
70050;BMP180;57391;51.306;22.680;2023-06-22T08:22:42;99919.20;;;32.54
70050;BMP180;57391;51.306;22.680;2023-06-22T08:25:11;99925.60;;;32.80
70050;BMP180;57391;51.306;22.680;2023-06-22T08:27:37;99930.40;;;33.00
70050;BMP180;57391;51.306;22.680;2023-06-22T08:30:06;99927.00;;;33.00
70050;BMP180;57391;51.306;22.680;2023-06-22T08:32:34;99925.20;;;33.00
70050;BMP180;57391;51.306;22.680;2023-06-22T08:35:01;99918.60;;;32.80
70050;BMP180;57391;51.306;22.680;2023-06-22T08:37:28;99920.00;;;32.90
70050;BMP180;57391;51.306;22.680;2023-06-22T08:40:00;99926.60;;;32.80
70050;BMP180;57391;51.306;22.680;2023-06-22T08:42:40;99922.80;;;32.76
70050;BMP180;57391;51.306;22.680;2023-06-22T08:45:08;99917.80;;;32.50
70050;BMP180;57391;51.306;22.680;2023-06-22T08:47:35;99919.00;;;32.20
70050;BMP180;57391;51.306;22.680;2023-06-22T08:50:02;99922.00;;;32.04
70050;BMP180;57391;51.306;22.680;2023-06-22T08:52:32;99914.40;;;32.00
70050;BMP180;57391;51.306;22.680;2023-06-22T08:54:59;99915.00;;;31.90
70050;BMP180;57391;51.306;22.680;2023-06-22T08:57:27;99908.80;;;31.84
70050;BMP180;57391;51.306;22.680;2023-06-22T08:59:54;99908.00;;;31.90
70050;BMP180;57391;51.306;22.680;2023-06-22T09:02:28;99918.40;;;31.90
70050;BMP180;57391;51.306;22.680;2023-06-22T09:04:57;99921.20;;;31.80
70050;BMP180;57391;51.306;22.680;2023-06-22T09:07:24;99925.80;;;31.60
70050;BMP180;57391;51.306;22.680;2023-06-22T09:09:52;99922.20;;;31.36
70050;BMP180;57391;51.306;22.680;2023-06-22T09:12:20;99917.80;;;31.20
70050;BMP180;57391;51.306;22.680;2023-06-22T09:14:51;99919.00;;;31.30
70050;BMP180;57391;51.306;22.680;2023-06-22T09:17:18;99919.20;;;31.36
70050;BMP180;57391;51.306;22.680;2023-06-22T09:19:45;99919.80;;;31.50
70050;BMP180;57391;51.306;22.680;2023-06-22T09:22:12;99919.80;;;31.52
70050;BMP180;57391;51.306;22.680;2023-06-22T09:24:39;99922.80;;;31.50
70050;BMP180;57391;51.306;22.680;2023-06-22T09:27:06;99924.80;;;31.48
70050;BMP180;57391;51.306;22.680;2023-06-22T09:29:33;99919.40;;;31.40
70050;BMP180;57391;51.306;22.680;2023-06-22T09:32:00;99921.60;;;31.50
70050;BMP180;57391;51.306;22.680;2023-06-22T09:34:28;99922.80;;;31.46
70050;BMP180;57391;51.306;22.680;2023-06-22T09:36:55;99919.40;;;31.30
70050;BMP180;57391;51.306;22.680;2023-06-22T09:39:21;99920.60;;;31.20
70050;BMP180;57391;51.306;22.680;2023-06-22T09:41:48;99915.20;;;30.94
70050;BMP180;57391;51.306;22.680;2023-06-22T09:44:15;99915.00;;;30.70
70050;BMP180;57391;51.306;22.680;2023-06-22T09:46:42;99920.20;;;30.50
70050;BMP180;57391;51.306;22.680;2023-06-22T09:49:09;99915.20;;;30.34
70050;BMP180;57391;51.306;22.680;2023-06-22T09:51:36;99912.60;;;30.20
70050;BMP180;57391;51.306;22.680;2023-06-22T09:54:03;99910.60;;;30.10
70050;BMP180;57391;51.306;22.680;2023-06-22T09:56:30;99906.80;;;29.90
70050;BMP180;57391;51.306;22.680;2023-06-22T09:58:58;99900.40;;;29.90
70050;BMP180;57391;51.306;22.680;2023-06-22T10:01:24;99898.00;;;29.84
70050;BMP180;57391;51.306;22.680;2023-06-22T10:03:55;99887.80;;;29.82
70050;BMP180;57391;51.306;22.680;2023-06-22T10:06:22;99903.00;;;30.06
70050;BMP180;57391;51.306;22.680;2023-06-22T10:08:51;99904.80;;;30.30
70050;BMP180;57391;51.306;22.680;2023-06-22T10:11:18;99907.60;;;30.54
70050;BMP180;57391;51.306;22.680;2023-06-22T10:13:45;99912.60;;;30.70
70050;BMP180;57391;51.306;22.680;2023-06-22T10:16:12;99912.80;;;30.70
70050;BMP180;57391;51.306;22.680;2023-06-22T10:18:39;99908.40;;;30.60
70050;BMP180;57391;51.306;22.680;2023-06-22T10:21:06;99901.80;;;30.70
70050;BMP180;57391;51.306;22.680;2023-06-22T10:23:32;99899.40;;;30.88
70050;BMP180;57391;51.306;22.680;2023-06-22T10:25:59;99898.40;;;31.06
70050;BMP180;57391;51.306;22.680;2023-06-22T10:28:26;99891.40;;;31.30
70050;BMP180;57391;51.306;22.680;2023-06-22T10:30:53;99890.60;;;31.52
70050;BMP180;57391;51.306;22.680;2023-06-22T10:33:20;99882.60;;;31.50
70050;BMP180;57391;51.306;22.680;2023-06-22T10:35:47;99882.00;;;31.40
70050;BMP180;57391;51.306;22.680;2023-06-22T10:38:13;99884.40;;;31.30
70050;BMP180;57391;51.306;22.680;2023-06-22T10:40:40;99893.80;;;31.38
70050;BMP180;57391;51.306;22.680;2023-06-22T10:43:07;99895.00;;;31.36
70050;BMP180;57391;51.306;22.680;2023-06-22T10:45:34;99894.20;;;31.30
70050;BMP180;57391;51.306;22.680;2023-06-22T10:48:01;99891.00;;;31.34
70050;BMP180;57391;51.306;22.680;2023-06-22T10:50:28;99887.20;;;31.40
70050;BMP180;57391;51.306;22.680;2023-06-22T10:52:55;99883.80;;;31.40
70050;BMP180;57391;51.306;22.680;2023-06-22T10:55:22;99881.00;;;31.40
70050;BMP180;57391;51.306;22.680;2023-06-22T10:57:48;99875.80;;;31.40
70050;BMP180;57391;51.306;22.680;2023-06-22T11:00:16;99874.40;;;31.40
70050;BMP180;57391;51.306;22.680;2023-06-22T11:02:43;99872.00;;;31.40
70050;BMP180;57391;51.306;22.680;2023-06-22T11:05:10;99883.00;;;31.40
70050;BMP180;57391;51.306;22.680;2023-06-22T11:07:42;99884.40;;;31.40
70050;BMP180;57391;51.306;22.680;2023-06-22T11:10:12;99879.60;;;31.50
70050;BMP180;57391;51.306;22.680;2023-06-22T11:12:39;99879.00;;;31.60
70050;BMP180;57391;51.306;22.680;2023-06-22T11:15:07;99880.80;;;31.60
70050;BMP180;57391;51.306;22.680;2023-06-22T11:17:34;99882.40;;;31.60
70050;BMP180;57391;51.306;22.680;2023-06-22T11:20:01;99877.80;;;31.50
70050;BMP180;57391;51.306;22.680;2023-06-22T11:22:31;99870.60;;;31.50
70050;BMP180;57391;51.306;22.680;2023-06-22T11:25:00;99871.60;;;31.50
70050;BMP180;57391;51.306;22.680;2023-06-22T11:27:27;99874.40;;;31.50
70050;BMP180;57391;51.306;22.680;2023-06-22T11:29:54;99870.00;;;31.50
70050;BMP180;57391;51.306;22.680;2023-06-22T11:32:22;99868.80;;;31.50
70050;BMP180;57391;51.306;22.680;2023-06-22T11:34:50;99867.20;;;31.50
70050;BMP180;57391;51.306;22.680;2023-06-22T11:37:16;99863.60;;;31.50
70050;BMP180;57391;51.306;22.680;2023-06-22T11:39:43;99868.80;;;31.48
70050;BMP180;57391;51.306;22.680;2023-06-22T11:42:10;99863.40;;;31.40
70050;BMP180;57391;51.306;22.680;2023-06-22T11:44:37;99863.20;;;31.40
70050;BMP180;57391;51.306;22.680;2023-06-22T11:47:05;99863.80;;;31.40
70050;BMP180;57391;51.306;22.680;2023-06-22T11:49:31;99857.40;;;31.50
70050;BMP180;57391;51.306;22.680;2023-06-22T11:51:58;99864.20;;;31.50
70050;BMP180;57391;51.306;22.680;2023-06-22T11:54:25;99866.40;;;31.50
70050;BMP180;57391;51.306;22.680;2023-06-22T11:56:52;99868.20;;;31.48
70050;BMP180;57391;51.306;22.680;2023-06-22T11:59:19;99873.20;;;31.30
70050;BMP180;57391;51.306;22.680;2023-06-22T12:01:48;99873.80;;;31.20
70050;BMP180;57391;51.306;22.680;2023-06-22T12:04:17;99874.40;;;31.20
70050;BMP180;57391;51.306;22.680;2023-06-22T12:06:44;99873.40;;;31.30
70050;BMP180;57391;51.306;22.680;2023-06-22T12:09:12;99873.40;;;31.40
70050;BMP180;57391;51.306;22.680;2023-06-22T12:11:40;99873.60;;;31.40
70050;BMP180;57391;51.306;22.680;2023-06-22T12:14:07;99873.00;;;31.44
70050;BMP180;57391;51.306;22.680;2023-06-22T12:16:34;99876.60;;;31.48
70050;BMP180;57391;51.306;22.680;2023-06-22T12:19:00;99877.20;;;31.40
70050;BMP180;57391;51.306;22.680;2023-06-22T12:21:27;99879.20;;;31.40
70050;BMP180;57391;51.306;22.680;2023-06-22T12:23:55;99877.00;;;31.40
70050;BMP180;57391;51.306;22.680;2023-06-22T12:26:22;99877.80;;;31.46
70050;BMP180;57391;51.306;22.680;2023-06-22T12:28:49;99876.00;;;31.50
70050;BMP180;57391;51.306;22.680;2023-06-22T12:31:17;99878.80;;;31.50
70050;BMP180;57391;51.306;22.680;2023-06-22T12:33:44;99879.40;;;31.50
70050;BMP180;57391;51.306;22.680;2023-06-22T12:36:11;99884.00;;;31.50
70050;BMP180;57391;51.306;22.680;2023-06-22T12:38:37;99888.00;;;31.50
70050;BMP180;57391;51.306;22.680;2023-06-22T12:41:04;99889.20;;;31.50
70050;BMP180;57391;51.306;22.680;2023-06-22T12:43:31;99887.20;;;31.50
70050;BMP180;57391;51.306;22.680;2023-06-22T12:45:58;99893.80;;;31.50
70050;BMP180;57391;51.306;22.680;2023-06-22T12:48:27;99886.60;;;31.50
70050;BMP180;57391;51.306;22.680;2023-06-22T12:50:54;99889.80;;;31.50
70050;BMP180;57391;51.306;22.680;2023-06-22T12:53:21;99890.80;;;31.42
70050;BMP180;57391;51.306;22.680;2023-06-22T12:55:50;99884.00;;;31.50
70050;BMP180;57391;51.306;22.680;2023-06-22T12:58:17;99883.20;;;31.50
70050;BMP180;57391;51.306;22.680;2023-06-22T13:00:44;99889.00;;;31.40
70050;BMP180;57391;51.306;22.680;2023-06-22T13:03:10;99886.40;;;31.40
70050;BMP180;57391;51.306;22.680;2023-06-22T13:05:37;99886.60;;;31.40
70050;BMP180;57391;51.306;22.680;2023-06-22T13:08:04;99885.20;;;31.40
70050;BMP180;57391;51.306;22.680;2023-06-22T13:10:31;99882.20;;;31.30
70050;BMP180;57391;51.306;22.680;2023-06-22T13:12:58;99882.20;;;31.30
70050;BMP180;57391;51.306;22.680;2023-06-22T13:15:28;99881.00;;;31.40
70050;BMP180;57391;51.306;22.680;2023-06-22T13:17:55;99882.20;;;31.38
70050;BMP180;57391;51.306;22.680;2023-06-22T13:20:22;99882.40;;;31.30
70050;BMP180;57391;51.306;22.680;2023-06-22T13:22:49;99879.40;;;31.30
70050;BMP180;57391;51.306;22.680;2023-06-22T13:25:16;99878.40;;;31.30
70050;BMP180;57391;51.306;22.680;2023-06-22T13:27:45;99876.20;;;31.26
70050;BMP180;57391;51.306;22.680;2023-06-22T13:30:13;99878.00;;;31.20
70050;BMP180;57391;51.306;22.680;2023-06-22T13:32:40;99878.60;;;31.20
70050;BMP180;57391;51.306;22.680;2023-06-22T13:35:11;99877.60;;;31.20
70050;BMP180;57391;51.306;22.680;2023-06-22T13:37:38;99877.40;;;31.20
70050;BMP180;57391;51.306;22.680;2023-06-22T13:40:07;99878.20;;;31.20
70050;BMP180;57391;51.306;22.680;2023-06-22T13:42:34;99879.00;;;31.24
70050;BMP180;57391;51.306;22.680;2023-06-22T13:45:01;99878.40;;;31.30
70050;BMP180;57391;51.306;22.680;2023-06-22T13:47:29;99873.60;;;31.20
70050;BMP180;57391;51.306;22.680;2023-06-22T13:49:58;99872.20;;;31.20
70050;BMP180;57391;51.306;22.680;2023-06-22T13:52:25;99869.80;;;31.10
70050;BMP180;57391;51.306;22.680;2023-06-22T13:54:52;99867.80;;;31.10
70050;BMP180;57391;51.306;22.680;2023-06-22T13:57:19;99866.00;;;31.10
70050;BMP180;57391;51.306;22.680;2023-06-22T13:59:46;99867.80;;;31.10
70050;BMP180;57391;51.306;22.680;2023-06-22T14:02:13;99863.60;;;31.00
70050;BMP180;57391;51.306;22.680;2023-06-22T14:04:40;99861.60;;;30.80